createdAt,value
2022-08-05T00:01:20.240Z,54.50
2022-08-05T00:04:28.836Z,54.50
2022-08-05T00:08:00.170Z,54.40
2022-08-05T00:11:02.042Z,54.50
2022-08-05T00:14:12.735Z,54.50
2022-08-05T00:17:25.835Z,54.40
2022-08-05T00:20:34.071Z,54.40
2022-08-05T00:23:46.579Z,54.40
2022-08-05T00:26:59.042Z,54.40
2022-08-05T00:30:11.525Z,54.40
2022-08-05T00:34:55.263Z,54.40
2022-08-05T00:37:11.981Z,54.40
2022-08-05T00:40:17.855Z,54.40
2022-08-05T00:43:46.942Z,54.50
2022-08-05T00:47:02.103Z,54.60
2022-08-05T00:50:12.469Z,54.50
2022-08-05T00:53:59.858Z,54.50
2022-08-05T00:56:51.944Z,54.40
2022-08-05T01:00:00.368Z,54.40
2022-08-05T01:03:08.240Z,54.40
2022-08-05T01:06:17.181Z,54.40
2022-08-05T01:09:30.462Z,54.30
2022-08-05T01:12:36.437Z,54.30
2022-08-05T01:15:56.750Z,54.30
2022-08-05T01:19:09.682Z,54.30
2022-08-05T01:22:29.259Z,54.30
2022-08-05T01:26:03.633Z,54.30
2022-08-05T01:29:18.480Z,54.30
2022-08-05T01:32:30.751Z,54.30
2022-08-05T01:35:51.342Z,54.20
2022-08-05T01:39:01.151Z,54.20
2022-08-05T01:42:10.019Z,54.20
2022-08-05T01:45:23.147Z,54.20
2022-08-05T01:48:31.160Z,54.20
2022-08-05T01:51:38.961Z,54.20
2022-08-05T01:54:52.787Z,54.30
2022-08-05T01:58:09.881Z,54.50
2022-08-05T02:01:25.565Z,54.50
2022-08-05T02:04:35.351Z,54.40
2022-08-05T02:07:59.797Z,54.40
2022-08-05T02:11:08.758Z,54.40
2022-08-05T02:14:23.445Z,54.30
2022-08-05T02:18:29.311Z,54.30
2022-08-05T02:21:05.740Z,54.30
2022-08-05T02:24:12.454Z,54.20
2022-08-05T02:27:29.936Z,54.20
2022-08-05T02:30:56.675Z,54.10
2022-08-05T02:34:11.307Z,54.20
2022-08-05T02:37:18.609Z,54.20
2022-08-05T02:40:29.289Z,54.10
2022-08-05T02:43:35.779Z,54.10
2022-08-05T02:47:04.146Z,54.10
2022-08-05T02:50:14.095Z,54.10
2022-08-05T02:53:26.242Z,54.10
2022-08-05T02:56:34.168Z,54.00
2022-08-05T02:59:50.322Z,54.00
2022-08-05T03:02:56.383Z,54.10
2022-08-05T03:06:57.252Z,54.00
2022-08-05T03:09:37.566Z,54.00
2022-08-05T03:12:46.215Z,54.10
2022-08-05T03:15:57.091Z,54.10
2022-08-05T03:19:17.040Z,54.10
2022-08-05T03:22:34.355Z,54.10
2022-08-05T03:26:04.339Z,54.20
2022-08-05T03:29:12.293Z,54.10
2022-08-05T03:32:20.203Z,54.10
2022-08-05T03:35:25.970Z,54.10
2022-08-05T03:38:37.543Z,54.00
2022-08-05T03:41:46.688Z,54.00
2022-08-05T03:44:54.456Z,53.90
2022-08-05T03:47:59.721Z,53.90
2022-08-05T03:52:36.466Z,53.90
2022-08-05T03:55:53.364Z,53.90
2022-08-05T03:58:13.922Z,53.90
2022-08-05T04:01:20.917Z,53.80
2022-08-05T04:04:29.034Z,53.80
2022-08-05T04:07:34.778Z,53.80
2022-08-05T04:11:05.231Z,53.80
2022-08-05T04:14:10.834Z,53.70
2022-08-05T04:17:26.548Z,53.70
2022-08-05T04:20:55.732Z,53.70
2022-08-05T04:24:08.943Z,53.70
2022-08-05T04:27:41.908Z,53.60
2022-08-05T04:30:49.939Z,53.60
2022-08-05T04:34:31.423Z,53.60
2022-08-05T04:37:31.564Z,53.60
2022-08-05T04:40:50.837Z,53.60
2022-08-05T04:44:01.385Z,53.50
2022-08-05T04:47:18.756Z,53.60
2022-08-05T04:50:34.461Z,53.30
2022-08-05T04:53:42.950Z,53.40
2022-08-05T04:56:51.587Z,53.40
2022-08-05T05:00:03.391Z,53.30
2022-08-05T05:03:11.708Z,53.20
2022-08-05T05:06:38.702Z,53.20
2022-08-05T05:09:50.373Z,53.30
2022-08-05T05:12:56.093Z,53.20
2022-08-05T05:16:08.440Z,53.20
2022-08-05T05:19:23.599Z,53.30
2022-08-05T05:22:34.859Z,53.20
2022-08-05T05:25:46.512Z,53.30
2022-08-05T05:28:55.287Z,53.20
2022-08-05T05:32:05.230Z,53.20
2022-08-05T05:35:20.183Z,53.20
2022-08-05T05:38:27.546Z,53.20
2022-08-05T05:41:40.459Z,53.20
2022-08-05T05:44:47.255Z,53.20
2022-08-05T05:48:08.111Z,53.20
2022-08-05T05:51:15.732Z,53.20
2022-08-05T05:54:49.735Z,53.20
2022-08-05T05:57:52.626Z,53.20
2022-08-05T06:01:02.196Z,53.20
2022-08-05T06:04:22.108Z,53.30
2022-08-05T06:07:41.780Z,53.30
2022-08-05T06:10:52.636Z,53.30
2022-08-05T06:14:00.790Z,53.30
2022-08-05T06:17:22.158Z,53.30
2022-08-05T06:20:34.769Z,53.40
2022-08-05T06:23:44.234Z,53.20
2022-08-05T06:26:53.180Z,53.30
2022-08-05T06:30:02.595Z,53.40
2022-08-05T06:33:19.066Z,53.40
2022-08-05T06:36:27.813Z,53.30
2022-08-05T06:39:55.180Z,53.40
2022-08-05T06:43:00.531Z,53.40
2022-08-05T06:46:08.010Z,53.40
2022-08-05T06:49:13.857Z,53.40
2022-08-05T06:52:38.051Z,53.60
2022-08-05T06:55:46.022Z,53.50
2022-08-05T06:58:53.861Z,53.50
2022-08-05T07:01:59.087Z,53.50
2022-08-05T07:05:14.197Z,53.60
2022-08-05T07:08:29.276Z,53.50
2022-08-05T07:11:39.811Z,53.70
2022-08-05T07:15:01.245Z,53.90
2022-08-05T07:18:11.579Z,54.10
2022-08-05T07:21:25.979Z,54.30
2022-08-05T07:24:44.079Z,54.40
2022-08-05T07:28:05.768Z,54.50
2022-08-05T07:31:19.845Z,54.50
2022-08-05T07:34:45.256Z,54.70
2022-08-05T07:37:53.314Z,54.70
2022-08-05T07:41:16.648Z,54.80
2022-08-05T07:44:29.460Z,54.70
2022-08-05T07:47:42.415Z,54.70
2022-08-05T07:50:56.489Z,54.80
2022-08-05T07:54:04.986Z,54.80
2022-08-05T07:57:23.753Z,54.80
2022-08-05T08:00:41.098Z,54.90
2022-08-05T08:03:48.833Z,54.90
2022-08-05T08:06:56.779Z,54.90
2022-08-05T08:10:04.175Z,54.90
2022-08-05T08:13:13.018Z,54.90
2022-08-05T08:16:50.396Z,54.90
2022-08-05T08:20:20.995Z,54.80
2022-08-05T08:24:01.541Z,54.80
2022-08-05T08:26:47.381Z,54.70
2022-08-05T08:30:27.617Z,54.70
2022-08-05T08:33:36.137Z,54.60
2022-08-05T08:36:54.706Z,54.90
2022-08-05T08:40:03.579Z,54.90
2022-08-05T08:45:17.946Z,55.00
2022-08-05T08:46:44.257Z,55.00
2022-08-05T08:50:06.160Z,55.20
2022-08-05T08:53:22.036Z,55.40
2022-08-05T08:56:29.720Z,55.40
2022-08-05T08:59:35.419Z,55.50
2022-08-05T09:02:46.459Z,55.50
2022-08-05T09:06:08.470Z,55.50
2022-08-05T09:09:20.614Z,55.50
2022-08-05T09:12:28.429Z,55.40
2022-08-05T09:15:37.363Z,55.40
2022-08-05T09:18:50.225Z,55.30
2022-08-05T09:22:31.285Z,55.20
2022-08-05T09:26:02.469Z,55.20
2022-08-05T09:29:06.137Z,55.10
2022-08-05T09:32:40.093Z,55.10
2022-08-05T09:35:56.015Z,55.10
2022-08-05T09:39:02.687Z,55.20
2022-08-05T09:42:13.588Z,55.20
2022-08-05T09:46:07.570Z,55.30
2022-08-05T09:49:19.646Z,55.30
2022-08-05T09:52:29.409Z,55.30
2022-08-05T09:55:58.616Z,55.20
2022-08-05T09:59:05.198Z,55.10
2022-08-05T10:02:13.460Z,54.90
2022-08-05T10:05:19.518Z,54.90
2022-08-05T10:08:37.431Z,55.10
2022-08-05T10:11:43.462Z,55.10
2022-08-05T10:14:50.978Z,55.00
2022-08-05T10:18:18.073Z,55.00
2022-08-05T10:21:27.781Z,55.20
2022-08-05T10:24:43.699Z,55.10
2022-08-05T10:28:12.791Z,55.10
2022-08-05T10:32:54.590Z,55.10
2022-08-05T10:34:49.018Z,55.00
2022-08-05T10:37:55.816Z,55.10
2022-08-05T10:41:12.374Z,55.00
2022-08-05T10:44:23.628Z,54.60
2022-08-05T10:47:36.798Z,54.70
2022-08-05T10:50:59.635Z,54.60
2022-08-05T10:54:28.369Z,54.70
2022-08-05T10:57:38.747Z,54.50
2022-08-05T11:00:55.396Z,54.60
2022-08-05T11:04:09.791Z,54.50
2022-08-05T11:07:19.402Z,54.50
2022-08-05T11:10:50.340Z,54.20
2022-08-05T11:14:11.406Z,54.70
2022-08-05T11:17:59.229Z,54.80
2022-08-05T11:21:00.331Z,54.80
2022-08-05T11:24:30.383Z,54.90
2022-08-05T11:27:51.215Z,54.80
2022-08-05T11:31:51.871Z,54.60
2022-08-05T11:34:59.049Z,54.60
2022-08-05T11:38:29.002Z,54.60
2022-08-05T11:41:54.602Z,54.60
2022-08-05T11:45:05.966Z,54.50
2022-08-05T11:48:33.834Z,54.70
2022-08-05T11:51:49.498Z,54.50
2022-08-05T11:54:59.210Z,54.60
2022-08-05T11:58:21.192Z,54.60
2022-08-05T12:01:50.293Z,54.50
2022-08-05T12:04:59.958Z,54.50
2022-08-05T12:08:18.164Z,54.50
2022-08-05T12:11:28.392Z,54.30
2022-08-05T12:14:55.054Z,54.30
2022-08-05T12:18:11.051Z,53.80
2022-08-05T12:21:23.751Z,54.30
2022-08-05T12:24:34.228Z,53.90
2022-08-05T12:27:52.969Z,53.90
2022-08-05T12:31:01.915Z,54.30
2022-08-05T12:34:20.416Z,54.50
2022-08-05T12:37:30.043Z,54.10
2022-08-05T12:40:43.496Z,54.30
2022-08-05T12:43:56.265Z,54.10
2022-08-05T12:47:03.788Z,54.20
2022-08-05T12:50:19.772Z,54.00
2022-08-05T12:53:36.998Z,54.00
2022-08-05T12:56:51.050Z,54.00
2022-08-05T13:01:56.959Z,53.80
2022-08-05T13:03:24.320Z,53.80
2022-08-05T13:06:51.521Z,54.00
2022-08-05T13:09:59.203Z,54.00
2022-08-05T13:13:13.244Z,54.00
2022-08-05T13:16:56.547Z,53.90
2022-08-05T13:20:05.599Z,53.80
2022-08-05T13:23:11.447Z,53.80
2022-08-05T13:26:20.156Z,53.80
2022-08-05T13:29:37.494Z,53.70
2022-08-05T13:32:50.465Z,53.60
2022-08-05T13:35:56.335Z,53.30
2022-08-05T13:40:14.583Z,53.30
2022-08-05T13:42:37.670Z,53.50
2022-08-05T13:45:48.066Z,53.50
2022-08-05T13:48:57.933Z,53.40
2022-08-05T13:52:18.031Z,53.70
2022-08-05T13:55:41.720Z,53.80
2022-08-05T13:58:54.200Z,53.70
2022-08-05T14:02:02.978Z,53.60
2022-08-05T14:05:15.248Z,53.90
2022-08-05T14:08:27.975Z,54.10
2022-08-05T14:12:04.075Z,54.00
2022-08-05T14:16:08.774Z,53.90
2022-08-05T14:18:42.739Z,53.80
2022-08-05T14:22:09.926Z,53.70
2022-08-05T14:25:21.688Z,53.70
2022-08-05T14:28:29.446Z,53.80
2022-08-05T14:32:02.460Z,53.80
2022-08-05T14:35:05.412Z,53.90
2022-08-05T14:38:31.623Z,53.80
2022-08-05T14:41:42.882Z,54.10
2022-08-05T14:45:10.226Z,54.10
2022-08-05T14:48:33.352Z,54.10
2022-08-05T14:51:44.863Z,54.10
2022-08-05T14:54:52.990Z,54.00
2022-08-05T14:58:00.777Z,54.00
2022-08-05T15:01:47.083Z,54.00
2022-08-05T15:04:51.209Z,54.00
2022-08-05T15:08:58.601Z,54.00
2022-08-05T15:12:16.892Z,54.00
2022-08-05T15:15:55.369Z,54.00
2022-08-05T15:19:06.766Z,54.00
2022-08-05T15:22:20.695Z,54.00
2022-08-05T15:25:51.117Z,54.10
2022-08-05T15:28:56.984Z,54.20
2022-08-05T15:32:05.785Z,54.20
2022-08-05T15:35:12.471Z,54.30
2022-08-05T15:38:35.559Z,54.40
2022-08-05T15:41:55.974Z,54.40
2022-08-05T15:45:09.735Z,54.70
2022-08-05T15:48:15.560Z,54.80
2022-08-05T15:51:23.294Z,54.80
2022-08-05T15:54:48.670Z,54.80
2022-08-05T15:58:00.867Z,54.90
2022-08-05T16:01:16.527Z,54.90
2022-08-05T16:04:25.974Z,54.90
2022-08-05T16:07:31.612Z,54.80
2022-08-05T16:10:39.532Z,54.70
2022-08-05T16:13:51.163Z,54.80
2022-08-05T16:16:58.501Z,54.40
2022-08-05T16:20:11.808Z,54.50
2022-08-05T16:23:19.672Z,54.40
2022-08-05T16:26:28.675Z,54.70
2022-08-05T16:29:50.480Z,54.70
2022-08-05T16:32:57.310Z,54.60
2022-08-05T16:36:08.428Z,54.80
2022-08-05T16:39:20.665Z,54.90
2022-08-05T16:42:30.337Z,55.00
2022-08-05T16:46:04.177Z,55.20
2022-08-05T16:49:07.758Z,55.30
2022-08-05T16:52:13.102Z,55.40
2022-08-05T16:55:23.377Z,55.50
2022-08-05T16:58:32.042Z,55.50
2022-08-05T17:01:54.454Z,55.60
2022-08-05T17:05:08.692Z,55.60
2022-08-05T17:08:36.386Z,55.70
2022-08-05T17:11:48.484Z,55.70
2022-08-05T17:14:58.916Z,55.60
2022-08-05T17:18:15.014Z,55.60
2022-08-05T17:21:37.154Z,55.70
2022-08-05T17:24:46.418Z,55.60
2022-08-05T17:28:05.739Z,55.70
2022-08-05T17:31:24.415Z,55.60
2022-08-05T17:34:48.473Z,55.50
2022-08-05T17:38:00.523Z,55.60
2022-08-05T17:41:11.579Z,55.70
2022-08-05T17:44:32.569Z,55.70
2022-08-05T17:48:13.779Z,55.80
2022-08-05T17:51:27.256Z,55.90
2022-08-05T17:54:35.833Z,55.80
2022-08-05T17:57:43.429Z,55.80
2022-08-05T18:00:55.898Z,55.80
2022-08-05T18:04:04.780Z,55.70
2022-08-05T18:07:16.099Z,55.80
2022-08-05T18:10:46.049Z,55.70
2022-08-05T18:13:53.252Z,55.50
2022-08-05T18:16:58.508Z,55.10
2022-08-05T18:20:14.038Z,55.30
2022-08-05T18:23:23.533Z,55.40
2022-08-05T18:26:40.385Z,55.60
2022-08-05T18:29:52.021Z,55.50
2022-08-05T18:33:02.616Z,55.50
2022-08-05T18:36:12.170Z,55.40
2022-08-05T18:40:31.185Z,55.50
2022-08-05T18:42:50.994Z,55.50
2022-08-05T18:46:02.036Z,55.50
2022-08-05T18:49:19.209Z,55.50
2022-08-05T18:52:36.272Z,55.50
2022-08-05T18:55:47.276Z,55.40
2022-08-05T18:59:00.885Z,55.50
2022-08-05T19:02:26.928Z,55.40
2022-08-05T19:06:11.444Z,55.20
2022-08-05T19:09:14.343Z,55.10
2022-08-05T19:12:24.804Z,55.10
2022-08-05T19:15:57.210Z,55.20
2022-08-05T19:18:57.824Z,55.10
2022-08-05T19:22:02.931Z,55.40
2022-08-05T19:25:10.627Z,55.70
2022-08-05T19:28:42.429Z,55.40
2022-08-05T19:31:56.083Z,56.70
2022-08-05T19:35:05.908Z,56.90
2022-08-05T19:38:14.241Z,56.20
2022-08-05T19:41:58.149Z,56.60
2022-08-05T19:44:56.755Z,56.30
2022-08-05T19:48:02.043Z,56.30
2022-08-05T19:51:21.947Z,56.40
2022-08-05T19:54:40.196Z,56.40
2022-08-05T19:58:06.767Z,56.60
2022-08-05T20:01:20.598Z,56.40
2022-08-05T20:04:35.937Z,56.60
2022-08-05T20:07:47.918Z,56.30
2022-08-05T20:10:56.928Z,56.20
2022-08-05T20:14:12.769Z,56.40
2022-08-05T20:17:27.852Z,56.20
2022-08-05T20:20:37.727Z,56.00
2022-08-05T20:23:51.310Z,56.20
2022-08-05T20:26:58.658Z,56.20
2022-08-05T20:30:06.639Z,56.30
2022-08-05T20:33:16.630Z,56.10
2022-08-05T20:36:29.880Z,56.10
2022-08-05T20:39:37.526Z,55.90
2022-08-05T20:42:44.872Z,55.80
2022-08-05T20:45:56.862Z,55.50
2022-08-05T20:49:12.583Z,55.70
2022-08-05T20:52:17.862Z,55.70
2022-08-05T20:56:07.223Z,55.60
2022-08-05T20:58:51.942Z,55.70
2022-08-05T21:01:59.388Z,55.70
2022-08-05T21:05:09.307Z,55.60
2022-08-05T21:08:16.763Z,55.50
2022-08-05T21:12:06.603Z,55.50
2022-08-05T21:14:49.496Z,55.40
2022-08-05T21:17:55.541Z,55.30
2022-08-05T21:21:06.117Z,55.30
2022-08-05T21:24:15.655Z,55.00
2022-08-05T21:27:24.651Z,55.10
2022-08-05T21:30:31.740Z,54.80
2022-08-05T21:33:40.180Z,54.70
2022-08-05T21:36:49.973Z,54.70
2022-08-05T21:39:57.485Z,54.70
2022-08-05T21:43:02.601Z,54.90
2022-08-05T21:46:12.986Z,54.80
2022-08-05T21:49:59.422Z,54.90
2022-08-05T21:52:49.461Z,54.70
2022-08-05T21:56:04.909Z,54.60
2022-08-05T21:59:22.676Z,54.60
2022-08-05T22:02:30.325Z,54.60
2022-08-05T22:05:49.271Z,54.30
2022-08-05T22:08:57.404Z,54.20
2022-08-05T22:12:10.678Z,54.40
2022-08-05T22:15:17.245Z,54.30
2022-08-05T22:18:49.002Z,54.00
2022-08-05T22:21:54.842Z,54.00
2022-08-05T22:25:27.693Z,53.90
2022-08-05T22:28:46.061Z,53.80
2022-08-05T22:31:55.145Z,53.80
2022-08-05T22:35:07.976Z,53.70
2022-08-05T22:38:15.396Z,53.70
2022-08-05T22:42:12.543Z,53.60
2022-08-05T22:45:19.635Z,53.60
2022-08-05T22:48:35.265Z,53.50
2022-08-05T22:52:04.911Z,53.40
2022-08-05T22:55:19.274Z,53.40
2022-08-05T22:58:30.234Z,53.40
2022-08-05T23:02:05.210Z,53.40
2022-08-05T23:05:14.426Z,53.40
2022-08-05T23:08:19.514Z,53.50
2022-08-05T23:11:26.618Z,53.60
2022-08-05T23:14:35.708Z,53.60
2022-08-05T23:18:00.628Z,53.50
2022-08-05T23:21:07.871Z,53.50
2022-08-05T23:24:17.550Z,53.50
2022-08-05T23:27:31.316Z,53.50
2022-08-05T23:30:54.682Z,53.50
2022-08-05T23:34:05.283Z,53.10
2022-08-05T23:37:13.754Z,53.30
2022-08-05T23:40:21.453Z,53.10
2022-08-05T23:44:02.983Z,53.20
2022-08-05T23:47:15.176Z,53.40
2022-08-05T23:50:22.978Z,53.30
2022-08-05T23:53:46.541Z,53.20
2022-08-05T23:56:54.222Z,53.20
